Map

Track Data

SID SEASON NUMBER BASIN SUBBASIN NAME ISO_TIME NATURE LAT LON WMO_WIND WMO_PRES WMO_AGENCY TRACK_TYPE DIST2LAND LANDFALL IFLAG USA_AGENCY USA_ATCF_ID USA_LAT USA_LON USA_RECORD USA_STATUS USA_WIND USA_PRES USA_SSHS USA_R34_NE USA_R34_SE USA_R34_SW USA_R34_NW USA_R50_NE USA_R50_SE USA_R50_SW USA_R50_NW USA_R64_NE USA_R64_SE USA_R64_SW USA_R64_NW USA_POCI USA_ROCI USA_RMW USA_EYE TOKYO_LAT TOKYO_LON TOKYO_GRADE TOKYO_WIND TOKYO_PRES TOKYO_R50_DIR TOKYO_R50_LONG TOKYO_R50_SHORT TOKYO_R30_DIR TOKYO_R30_LONG TOKYO_R30_SHORT TOKYO_LAND CMA_LAT CMA_LON CMA_CAT CMA_WIND CMA_PRES HKO_LAT HKO_LON HKO_CAT HKO_WIND HKO_PRES NEWDELHI_LAT NEWDELHI_LON NEWDELHI_GRADE NEWDELHI_WIND NEWDELHI_PRES NEWDELHI_CI NEWDELHI_DP NEWDELHI_POCI REUNION_LAT REUNION_LON REUNION_TYPE REUNION_WIND REUNION_PRES REUNION_TNUM REUNION_CI REUNION_RMW REUNION_R34_NE REUNION_R34_SE REUNION_R34_SW REUNION_R34_NW REUNION_R50_NE REUNION_R50_SE REUNION_R50_SW REUNION_R50_NW REUNION_R64_NE REUNION_R64_SE REUNION_R64_SW REUNION_R64_NW BOM_LAT BOM_LON BOM_TYPE BOM_WIND BOM_PRES BOM_TNUM BOM_CI BOM_RMW BOM_R34_NE BOM_R34_SE BOM_R34_SW BOM_R34_NW BOM_R50_NE BOM_R50_SE BOM_R50_SW BOM_R50_NW BOM_R64_NE BOM_R64_SE BOM_R64_SW BOM_R64_NW BOM_ROCI BOM_POCI BOM_EYE BOM_POS_METHOD BOM_PRES_METHOD NADI_LAT NADI_LON NADI_CAT NADI_WIND NADI_PRES WELLINGTON_LAT WELLINGTON_LON WELLINGTON_WIND WELLINGTON_PRES DS824_LAT DS824_LON DS824_STAGE DS824_WIND DS824_PRES TD9636_LAT TD9636_LON TD9636_STAGE TD9636_WIND TD9636_PRES TD9635_LAT TD9635_LON TD9635_WIND TD9635_PRES TD9635_ROCI NEUMANN_LAT NEUMANN_LON NEUMANN_CLASS NEUMANN_WIND NEUMANN_PRES MLC_LAT MLC_LON MLC_CLASS MLC_WIND MLC_PRES USA_GUST BOM_GUST BOM_GUST_PER REUNION_GUST REUNION_GUST_PER USA_SEAHGT USA_SEARAD_NE USA_SEARAD_SE USA_SEARAD_SW USA_SEARAD_NW STORM_SPEED STORM_DIR
2000264N17257 2000 87 EP MM NORMAN 2000-09-20 00:00:00 TS 16.8000 -103.400 25 1008 hurdat_epa main 154 130 O_____________ hurdat_epa EP162000 16.8000 -103.400 TD 25 1008 -1 4 24
2000264N17257 2000 87 EP MM NORMAN 2000-09-20 03:00:00 TS 16.9775 -103.322 main 130 105 P_____________ EP162000 16.9775 -103.322 TD 27 1007 -1 4 25
2000264N17257 2000 87 EP MM NORMAN 2000-09-20 06:00:00 TS 17.2000 -103.200 30 1007 hurdat_epa main 105 67 O_____________ hurdat_epa EP162000 17.2000 -103.200 TD 30 1007 -1 6 29
2000264N17257 2000 87 EP MM NORMAN 2000-09-20 09:00:00 TS 17.4925 -103.020 main 67 33 P_____________ EP162000 17.4925 -103.020 TD 35 1006 0 7 25
2000264N17257 2000 87 EP MM NORMAN 2000-09-20 12:00:00 TS 17.8000 -102.900 40 1005 hurdat_epa main 33 0 O_____________ hurdat_epa EP162000 17.8000 -102.900 TS 40 1005 0 6 6
2000264N17257 2000 87 EP MM NORMAN 2000-09-20 15:00:00 TS 18.0773 -102.953 main 10 0 P_____________ EP162000 18.0797 -102.956 TS 42 1001 0 5 339
2000264N17257 2000 87 EP MM NORMAN 2000-09-20 18:00:00 TS 18.3000 -103.100 45 998 hurdat_epa main 0 0 O_____________ hurdat_epa EP162000 18.3000 -103.100 TS 45 998 0 5 324
2000264N17257 2000 87 EP MM NORMAN 2000-09-20 20:00:00 TS 18.3944 -103.201 45 1000 hurdat_epa main 0 0 O_____________ hurdat_epa EP162000 18.4000 -103.200 L TS 45 1000 0 4 311
2000264N17257 2000 87 EP MM NORMAN 2000-09-20 21:00:00 TS 18.4328 -103.261 main 0 0 P_____________ EP162000 18.4393 -103.261 TS 42 1000 0 5 306
2000264N17257 2000 87 EP MM NORMAN 2000-09-21 00:00:00 TS 18.6000 -103.500 35 1000 hurdat_epa main 0 0 O_____________ hurdat_epa EP162000 18.6000 -103.500 TS 35 1000 0 8 318
2000264N17257 2000 87 EP MM NORMAN 2000-09-21 03:00:00 TS 19.0274 -103.820 main 0 0 P_____________ EP162000 19.0236 -103.820 TS 32 1002 -1 11 324
2000264N17257 2000 87 EP MM NORMAN 2000-09-21 06:00:00 TS 19.5000 -104.200 30 1004 hurdat_epa main 0 0 O_____________ hurdat_epa EP162000 19.5000 -104.200 TD 30 1004 -1 11 315
2000264N17257 2000 87 EP MM NORMAN 2000-09-21 09:00:00 TS 19.8026 -104.630 main 0 0 P_____________ EP162000 19.8026 -104.630 TD 30 1004 -1 9 304
2000264N17257 2000 87 EP MM NORMAN 2000-09-21 12:00:00 TS 20.0000 -105.000 30 1005 hurdat_epa main 0 0 O_____________ hurdat_epa EP162000 20.0000 -105.000 TD 30 1005 -1 6 300
2000264N17257 2000 87 EP MM NORMAN 2000-09-21 15:00:00 TS 20.0998 -105.180 main 0 0 P_____________ EP162000 20.0998 -105.180 TD 27 1005 -1 3 305
2000264N17257 2000 87 EP MM NORMAN 2000-09-21 18:00:00 TS 20.2000 -105.300 25 1005 hurdat_epa main 0 0 O_____________ hurdat_epa EP162000 20.2000 -105.300 TD 25 1005 -1 4 317
2000264N17257 2000 87 EP MM NORMAN 2000-09-21 21:00:00 TS 20.4125 -105.493 main 0 0 P_____________ EP162000 20.4125 -105.493 TD 25 1005 -1 6 323
2000264N17257 2000 87 EP MM NORMAN 2000-09-22 00:00:00 TS 20.7000 -105.700 25 1005 hurdat_epa main 23 20 O_____________ hurdat_epa EP162000 20.7000 -105.700 TD 25 1005 -1 7 326
2000264N17257 2000 87 EP MM NORMAN 2000-09-22 03:00:00 TS 20.9975 -105.915 main 47 47 P_____________ EP162000 20.9975 -105.915 TD 25 1005 -1 8 332
2000264N17257 2000 87 EP MM NORMAN 2000-09-22 06:00:00 TS 21.4000 -106.100 25 1005 hurdat_epa main 75 62 O_____________ hurdat_epa EP162000 21.4000 -106.100 TD 25 1005 -1 10 343
2000264N17257 2000 87 EP MM NORMAN 2000-09-22 09:00:00 TS 21.9809 -106.233 main 61 38 P_____________ EP162000 21.9863 -106.234 TD 25 1005 -1 12 351
2000264N17257 2000 87 EP MM NORMAN 2000-09-22 12:00:00 TS 22.6000 -106.300 25 1005 hurdat_epa main 38 0 O_____________ hurdat_epa EP162000 22.6000 -106.300 TD 25 1005 -1 12 357
2000264N17257 2000 87 EP MM NORMAN 2000-09-22 15:00:00 TS 23.1242 -106.305 25 1006 hurdat_epa main 0 0 O_____________ hurdat_epa EP162000 23.1000 -106.300 L TD 25 1006 -1 11 0
2000264N17257 2000 87 EP MM NORMAN 2000-09-22 18:00:00 TS 23.7000 -106.300 25 1006 hurdat_epa main 0 O_____________ hurdat_epa EP162000 23.7000 -106.300 TD 25 1006 -1 12 2

About IBTrACS Database

This database is a web-friendly format of International Best Track Archive for Climate Stewardship (IBTrACS), a global best track data archive curated by NOAA dating back to 1842.

Updated: 2021-11-26